sensor_id;sensor_type;location;lat;lon;timestamp;pressure;altitude;pressure_sealevel;temperature
66027;BMP280;56312;55.976;37.136;2022-09-01T00:03:30;98082.28;;;20.31
66027;BMP280;56312;55.976;37.136;2022-09-01T00:08:36;98086.78;;;20.29
66027;BMP280;56312;55.976;37.136;2022-09-01T00:13:43;98085.41;;;20.25
66027;BMP280;56312;55.976;37.136;2022-09-01T00:18:50;98089.22;;;20.21
66027;BMP280;56312;55.976;37.136;2022-09-01T00:23:58;98092.13;;;20.18
66027;BMP280;56312;55.976;37.136;2022-09-01T00:29:06;98097.59;;;20.15
66027;BMP280;56312;55.976;37.136;2022-09-01T00:34:12;98091.84;;;20.12
66027;BMP280;56312;55.976;37.136;2022-09-01T00:39:19;98090.31;;;20.09
66027;BMP280;56312;55.976;37.136;2022-09-01T00:44:25;98087.03;;;20.07
66027;BMP280;56312;55.976;37.136;2022-09-01T00:49:38;98086.22;;;20.07
66027;BMP280;56312;55.976;37.136;2022-09-01T00:54:49;98087.16;;;20.06
66027;BMP280;56312;55.976;37.136;2022-09-01T01:00:00;98086.31;;;20.05
66027;BMP280;56312;55.976;37.136;2022-09-01T01:05:33;98084.41;;;20.07
66027;BMP280;56312;55.976;37.136;2022-09-01T01:10:44;98073.75;;;20.10
66027;BMP280;56312;55.976;37.136;2022-09-01T01:15:51;98077.00;;;20.12
66027;BMP280;56312;55.976;37.136;2022-09-01T01:21:06;98068.53;;;20.10
66027;BMP280;56312;55.976;37.136;2022-09-01T01:26:38;98071.41;;;20.07
66027;BMP280;56312;55.976;37.136;2022-09-01T01:31:45;98056.97;;;20.04
66027;BMP280;56312;55.976;37.136;2022-09-01T01:36:59;98052.03;;;20.01
66027;BMP280;56312;55.976;37.136;2022-09-01T01:42:06;98051.47;;;19.97
66027;BMP280;56312;55.976;37.136;2022-09-01T01:47:14;98043.09;;;19.94
66027;BMP280;56312;55.976;37.136;2022-09-01T01:52:22;98047.63;;;19.92
66027;BMP280;56312;55.976;37.136;2022-09-01T01:57:29;98042.53;;;19.90
66027;BMP280;56312;55.976;37.136;2022-09-01T02:02:37;98048.56;;;19.91
66027;BMP280;56312;55.976;37.136;2022-09-01T02:07:44;98052.13;;;19.90
66027;BMP280;56312;55.976;37.136;2022-09-01T02:12:51;98053.78;;;19.91
66027;BMP280;56312;55.976;37.136;2022-09-01T02:17:57;98044.06;;;19.93
66027;BMP280;56312;55.976;37.136;2022-09-01T02:23:05;98050.78;;;19.95
66027;BMP280;56312;55.976;37.136;2022-09-01T02:28:16;98057.50;;;19.98
66027;BMP280;56312;55.976;37.136;2022-09-01T02:33:25;98048.19;;;19.95
66027;BMP280;56312;55.976;37.136;2022-09-01T02:38:33;98048.44;;;19.92
66027;BMP280;56312;55.976;37.136;2022-09-01T02:43:40;98053.09;;;19.89
66027;BMP280;56312;55.976;37.136;2022-09-01T02:48:48;98041.16;;;19.86
66027;BMP280;56312;55.976;37.136;2022-09-01T02:53:56;98046.66;;;19.83
66027;BMP280;56312;55.976;37.136;2022-09-01T02:59:03;98049.53;;;19.80
66027;BMP280;56312;55.976;37.136;2022-09-01T03:04:10;98054.97;;;19.77
66027;BMP280;56312;55.976;37.136;2022-09-01T03:09:17;98056.78;;;19.77
66027;BMP280;56312;55.976;37.136;2022-09-01T03:14:24;98065.56;;;19.76
66027;BMP280;56312;55.976;37.136;2022-09-01T03:19:30;98065.56;;;19.76
66027;BMP280;56312;55.976;37.136;2022-09-01T03:24:49;98061.28;;;19.75
66027;BMP280;56312;55.976;37.136;2022-09-01T03:29:55;98067.03;;;19.78
66027;BMP280;56312;55.976;37.136;2022-09-01T03:35:01;98064.31;;;19.80
66027;BMP280;56312;55.976;37.136;2022-09-01T03:40:08;98065.00;;;19.82
66027;BMP280;56312;55.976;37.136;2022-09-01T03:45:16;98062.41;;;19.82
66027;BMP280;56312;55.976;37.136;2022-09-01T03:50:25;98057.34;;;19.80
66027;BMP280;56312;55.976;37.136;2022-09-01T03:55:33;98065.41;;;19.77
66027;BMP280;56312;55.976;37.136;2022-09-01T04:00:43;98069.09;;;19.75
66027;BMP280;56312;55.976;37.136;2022-09-01T04:05:52;98060.00;;;19.70
66027;BMP280;56312;55.976;37.136;2022-09-01T04:11:01;98059.44;;;19.66
66027;BMP280;56312;55.976;37.136;2022-09-01T04:16:22;98065.72;;;19.64
66027;BMP280;56312;55.976;37.136;2022-09-01T04:21:53;98058.19;;;19.61
66027;BMP280;56312;55.976;37.136;2022-09-01T04:27:01;98057.38;;;19.60
66027;BMP280;56312;55.976;37.136;2022-09-01T04:32:08;98066.94;;;19.60
66027;BMP280;56312;55.976;37.136;2022-09-01T04:37:18;98066.13;;;19.59
66027;BMP280;56312;55.976;37.136;2022-09-01T04:42:27;98080.66;;;19.62
66027;BMP280;56312;55.976;37.136;2022-09-01T04:47:34;98071.06;;;19.62
66027;BMP280;56312;55.976;37.136;2022-09-01T04:52:42;98069.19;;;19.64
66027;BMP280;56312;55.976;37.136;2022-09-01T04:57:50;98069.28;;;19.63
66027;BMP280;56312;55.976;37.136;2022-09-01T05:02:58;98068.47;;;19.62
66027;BMP280;56312;55.976;37.136;2022-09-01T05:08:10;98077.34;;;19.60
66027;BMP280;56312;55.976;37.136;2022-09-01T05:13:19;98077.75;;;19.55
66027;BMP280;56312;55.976;37.136;2022-09-01T05:18:27;98073.75;;;19.51
66027;BMP280;56312;55.976;37.136;2022-09-01T05:23:34;98085.00;;;19.52
66027;BMP280;56312;55.976;37.136;2022-09-01T05:28:41;98071.16;;;19.51
66027;BMP280;56312;55.976;37.136;2022-09-01T05:33:52;98072.94;;;19.51
66027;BMP280;56312;55.976;37.136;2022-09-01T05:39:00;98081.56;;;19.51
66027;BMP280;56312;55.976;37.136;2022-09-01T05:44:10;98077.34;;;19.50
66027;BMP280;56312;55.976;37.136;2022-09-01T05:49:16;98082.53;;;19.50
66027;BMP280;56312;55.976;37.136;2022-09-01T05:54:23;98091.06;;;19.52
66027;BMP280;56312;55.976;37.136;2022-09-01T05:59:32;98090.22;;;19.52
66027;BMP280;56312;55.976;37.136;2022-09-01T06:04:38;98080.66;;;19.52
66027;BMP280;56312;55.976;37.136;2022-09-01T06:09:46;98086.66;;;19.53
66027;BMP280;56312;55.976;37.136;2022-09-01T06:14:54;98082.53;;;19.50
66027;BMP280;56312;55.976;37.136;2022-09-01T06:20:01;98083.63;;;19.48
66027;BMP280;56312;55.976;37.136;2022-09-01T06:25:15;98088.25;;;19.45
66027;BMP280;56312;55.976;37.136;2022-09-01T06:30:23;98084.25;;;19.41
66027;BMP280;56312;55.976;37.136;2022-09-01T06:35:32;98097.66;;;19.36
66027;BMP280;56312;55.976;37.136;2022-09-01T06:40:39;98091.63;;;19.36
66027;BMP280;56312;55.976;37.136;2022-09-01T06:45:46;98089.03;;;19.36
66027;BMP280;56312;55.976;37.136;2022-09-01T06:51:02;98094.25;;;19.36
66027;BMP280;56312;55.976;37.136;2022-09-01T06:56:09;98096.84;;;19.36
66027;BMP280;56312;55.976;37.136;2022-09-01T07:01:18;98099.84;;;19.31
66027;BMP280;56312;55.976;37.136;2022-09-01T07:06:26;98111.78;;;19.34
66027;BMP280;56312;55.976;37.136;2022-09-01T07:11:33;98109.19;;;19.34
66027;BMP280;56312;55.976;37.136;2022-09-01T07:16:41;98103.69;;;19.37
66027;BMP280;56312;55.976;37.136;2022-09-01T07:21:48;98106.28;;;19.37
66027;BMP280;56312;55.976;37.136;2022-09-01T07:26:55;98103.59;;;19.38
66027;BMP280;56312;55.976;37.136;2022-09-01T07:32:01;98115.78;;;19.38
66027;BMP280;56312;55.976;37.136;2022-09-01T07:37:08;98109.19;;;19.34
66027;BMP280;56312;55.976;37.136;2022-09-01T07:42:16;98127.91;;;19.28
66027;BMP280;56312;55.976;37.136;2022-09-01T07:47:24;98128.88;;;19.27
66027;BMP280;56312;55.976;37.136;2022-09-01T07:52:34;98127.34;;;19.24
66027;BMP280;56312;55.976;37.136;2022-09-01T07:57:43;98116.91;;;19.24
66027;BMP280;56312;55.976;37.136;2022-09-01T08:02:50;98115.28;;;19.23
66027;BMP280;56312;55.976;37.136;2022-09-01T08:07:57;98117.75;;;19.25
66027;BMP280;56312;55.976;37.136;2022-09-01T08:13:03;98124.72;;;19.24
66027;BMP280;56312;55.976;37.136;2022-09-01T08:18:10;98122.94;;;19.25
66027;BMP280;56312;55.976;37.136;2022-09-01T08:23:18;98119.41;;;19.26
66027;BMP280;56312;55.976;37.136;2022-09-01T08:28:25;98118.44;;;19.27
66027;BMP280;56312;55.976;37.136;2022-09-01T08:33:31;98111.22;;;19.30
66027;BMP280;56312;55.976;37.136;2022-09-01T08:38:40;98113.44;;;19.35
66027;BMP280;56312;55.976;37.136;2022-09-01T08:48:58;98124.91;;;19.32
66027;BMP280;56312;55.976;37.136;2022-09-01T08:54:28;98122.44;;;19.31
66027;BMP280;56312;55.976;37.136;2022-09-01T08:59:42;98135.03;;;19.26
66027;BMP280;56312;55.976;37.136;2022-09-01T09:05:08;98121.44;;;19.23
66027;BMP280;56312;55.976;37.136;2022-09-01T09:16:11;98141.44;;;19.22
66027;BMP280;56312;55.976;37.136;2022-09-01T09:21:37;98146.75;;;19.21
66027;BMP280;56312;55.976;37.136;2022-09-01T09:26:49;98143.34;;;19.20
66027;BMP280;56312;55.976;37.136;2022-09-01T09:32:04;98138.13;;;19.20
66027;BMP280;56312;55.976;37.136;2022-09-01T09:37:24;98146.75;;;19.21
66027;BMP280;56312;55.976;37.136;2022-09-01T09:42:33;98152.78;;;19.21
66027;BMP280;56312;55.976;37.136;2022-09-01T09:47:41;98155.13;;;19.24
66027;BMP280;56312;55.976;37.136;2022-09-01T09:52:51;98156.78;;;19.25
66027;BMP280;56312;55.976;37.136;2022-09-01T09:57:59;98155.13;;;19.24
66027;BMP280;56312;55.976;37.136;2022-09-01T10:03:13;98155.28;;;19.23
66027;BMP280;56312;55.976;37.136;2022-09-01T10:13:32;98165.34;;;19.16
66027;BMP280;56312;55.976;37.136;2022-09-01T10:18:42;98150.72;;;19.15
66027;BMP280;56312;55.976;37.136;2022-09-01T10:23:50;98152.72;;;19.12
66027;BMP280;56312;55.976;37.136;2022-09-01T10:29:05;98156.41;;;19.09
66027;BMP280;56312;55.976;37.136;2022-09-01T10:34:18;98173.78;;;19.09
66027;BMP280;56312;55.976;37.136;2022-09-01T10:39:26;98174.03;;;19.06
66027;BMP280;56312;55.976;37.136;2022-09-01T10:44:33;98165.88;;;19.10
66027;BMP280;56312;55.976;37.136;2022-09-01T10:54:51;98164.91;;;19.31
66027;BMP280;56312;55.976;37.136;2022-09-01T11:11:08;98153.81;;;19.50
66027;BMP280;56312;55.976;37.136;2022-09-01T11:16:34;98155.44;;;19.50
66027;BMP280;56312;55.976;37.136;2022-09-01T11:21:42;98157.38;;;19.49
66027;BMP280;56312;55.976;37.136;2022-09-01T11:26:49;98143.41;;;19.50
66027;BMP280;56312;55.976;37.136;2022-09-01T11:31:55;98154.78;;;19.49
66027;BMP280;56312;55.976;37.136;2022-09-01T11:37:04;98143.41;;;19.50
66027;BMP280;56312;55.976;37.136;2022-09-01T11:42:26;98146.69;;;19.51
66027;BMP280;56312;55.976;37.136;2022-09-01T11:47:39;98144.78;;;19.53
66027;BMP280;56312;55.976;37.136;2022-09-01T11:58:03;98136.84;;;19.55
66027;BMP280;56312;55.976;37.136;2022-09-01T12:03:24;98134.13;;;19.56
66027;BMP280;56312;55.976;37.136;2022-09-01T12:08:34;98133.59;;;19.62
66027;BMP280;56312;55.976;37.136;2022-09-01T12:13:53;98144.00;;;19.62
66027;BMP280;56312;55.976;37.136;2022-09-01T12:19:21;98133.59;;;19.62
66027;BMP280;56312;55.976;37.136;2022-09-01T12:24:35;98139.88;;;19.60
66027;BMP280;56312;55.976;37.136;2022-09-01T12:29:42;98140.41;;;19.54
66027;BMP280;56312;55.976;37.136;2022-09-01T12:35:02;98153.81;;;19.50
66027;BMP280;56312;55.976;37.136;2022-09-01T12:40:24;98155.94;;;19.45
66027;BMP280;56312;55.976;37.136;2022-09-01T12:50:46;98161.81;;;19.37
66027;BMP280;56312;55.976;37.136;2022-09-01T13:01:40;98155.09;;;19.35
66027;BMP280;56312;55.976;37.136;2022-09-01T13:06:47;98148.81;;;19.37
66027;BMP280;56312;55.976;37.136;2022-09-01T13:12:08;98157.44;;;19.38
66027;BMP280;56312;55.976;37.136;2022-09-01T13:17:15;98148.91;;;19.36
66027;BMP280;56312;55.976;37.136;2022-09-01T13:22:23;98154.69;;;19.39
66027;BMP280;56312;55.976;37.136;2022-09-01T13:27:29;98154.31;;;19.44
66027;BMP280;56312;55.976;37.136;2022-09-01T13:32:36;98154.88;;;19.47
66027;BMP280;56312;55.976;37.136;2022-09-01T13:37:43;57634.44;;;-135.08
66027;BMP280;56312;55.976;37.136;2022-09-01T13:42:50;57634.44;;;-135.08
66027;BMP280;56312;55.976;37.136;2022-09-01T13:47:57;57634.44;;;-135.08
66027;BMP280;56312;55.976;37.136;2022-09-01T13:53:05;57634.44;;;-135.08
66027;BMP280;56312;55.976;37.136;2022-09-01T13:58:11;57634.44;;;-135.08
66027;BMP280;56312;55.976;37.136;2022-09-01T14:03:20;57634.44;;;-135.08
66027;BMP280;56312;55.976;37.136;2022-09-01T14:08:28;57634.44;;;-135.08
66027;BMP280;56312;55.976;37.136;2022-09-01T14:13:35;57634.44;;;-135.08
66027;BMP280;56312;55.976;37.136;2022-09-01T14:18:42;57634.44;;;-135.08
66027;BMP280;56312;55.976;37.136;2022-09-01T14:23:48;57634.44;;;-135.08
66027;BMP280;56312;55.976;37.136;2022-09-01T14:28:55;57634.44;;;-135.08
66027;BMP280;56312;55.976;37.136;2022-09-01T14:34:01;57634.44;;;-135.08
66027;BMP280;56312;55.976;37.136;2022-09-01T14:39:08;57634.44;;;-135.08
66027;BMP280;56312;55.976;37.136;2022-09-01T14:44:14;57634.44;;;-135.08
66027;BMP280;56312;55.976;37.136;2022-09-01T14:49:21;57634.44;;;-135.08
66027;BMP280;56312;55.976;37.136;2022-09-01T14:54:27;57634.44;;;-135.08
66027;BMP280;56312;55.976;37.136;2022-09-01T14:59:34;57634.44;;;-135.08
66027;BMP280;56312;55.976;37.136;2022-09-01T15:04:42;57634.44;;;-135.08
66027;BMP280;56312;55.976;37.136;2022-09-01T15:09:48;57634.44;;;-135.08
66027;BMP280;56312;55.976;37.136;2022-09-01T15:14:55;57634.44;;;-135.08
66027;BMP280;56312;55.976;37.136;2022-09-01T15:20:03;57634.44;;;-135.08
66027;BMP280;56312;55.976;37.136;2022-09-01T15:25:29;57634.44;;;-135.08
66027;BMP280;56312;55.976;37.136;2022-09-01T15:30:36;57634.44;;;-135.08
66027;BMP280;56312;55.976;37.136;2022-09-01T15:35:44;57634.44;;;-135.08
66027;BMP280;56312;55.976;37.136;2022-09-01T15:40:51;57634.44;;;-135.08
66027;BMP280;56312;55.976;37.136;2022-09-01T15:45:58;57634.44;;;-135.08
66027;BMP280;56312;55.976;37.136;2022-09-01T15:56:28;57634.44;;;-135.08
66027;BMP280;56312;55.976;37.136;2022-09-01T16:01:37;57634.44;;;-135.08
66027;BMP280;56312;55.976;37.136;2022-09-01T16:06:45;57634.44;;;-135.08
66027;BMP280;56312;55.976;37.136;2022-09-01T16:11:52;57634.44;;;-135.08
66027;BMP280;56312;55.976;37.136;2022-09-01T16:17:20;57634.44;;;-135.08
66027;BMP280;56312;55.976;37.136;2022-09-01T16:22:53;57634.44;;;-135.08
66027;BMP280;56312;55.976;37.136;2022-09-01T16:28:03;57634.44;;;-135.08
66027;BMP280;56312;55.976;37.136;2022-09-01T16:33:15;57634.44;;;-135.08
66027;BMP280;56312;55.976;37.136;2022-09-01T16:44:17;57634.44;;;-135.08
66027;BMP280;56312;55.976;37.136;2022-09-01T16:55:14;57634.44;;;-135.08
66027;BMP280;56312;55.976;37.136;2022-09-01T17:01:19;57634.44;;;-135.08
66027;BMP280;56312;55.976;37.136;2022-09-01T17:06:08;57634.44;;;-135.08
66027;BMP280;56312;55.976;37.136;2022-09-01T17:11:47;57634.44;;;-135.08
66027;BMP280;56312;55.976;37.136;2022-09-01T17:17:05;57634.44;;;-135.08
66027;BMP280;56312;55.976;37.136;2022-09-01T17:22:13;57634.44;;;-135.08
66027;BMP280;56312;55.976;37.136;2022-09-01T17:38:11;57634.44;;;-135.08
66027;BMP280;56312;55.976;37.136;2022-09-01T17:49:04;57634.44;;;-135.08
66027;BMP280;56312;55.976;37.136;2022-09-01T17:54:48;57634.44;;;-135.08
66027;BMP280;56312;55.976;37.136;2022-09-01T18:00:20;57634.44;;;-135.08
66027;BMP280;56312;55.976;37.136;2022-09-01T18:05:33;57634.44;;;-135.08
66027;BMP280;56312;55.976;37.136;2022-09-01T18:10:59;57634.44;;;-135.08
66027;BMP280;56312;55.976;37.136;2022-09-01T18:16:11;57634.44;;;-135.08
66027;BMP280;56312;55.976;37.136;2022-09-01T18:21:22;57634.44;;;-135.08
66027;BMP280;56312;55.976;37.136;2022-09-01T18:26:34;57634.44;;;-135.08
66027;BMP280;56312;55.976;37.136;2022-09-01T18:37:29;57634.44;;;-135.08
66027;BMP280;56312;55.976;37.136;2022-09-01T18:54:37;57634.44;;;-135.08
66027;BMP280;56312;55.976;37.136;2022-09-01T19:00:03;57634.44;;;-135.08
66027;BMP280;56312;55.976;37.136;2022-09-01T19:10:23;57634.44;;;-135.08
66027;BMP280;56312;55.976;37.136;2022-09-01T19:26:17;57634.44;;;-135.08
66027;BMP280;56312;55.976;37.136;2022-09-01T19:36:54;57634.44;;;-135.08
66027;BMP280;56312;55.976;37.136;2022-09-01T19:47:25;57634.44;;;-135.08
66027;BMP280;56312;55.976;37.136;2022-09-01T19:52:50;57634.44;;;-135.08
66027;BMP280;56312;55.976;37.136;2022-09-01T20:03:24;57634.44;;;-135.08
66027;BMP280;56312;55.976;37.136;2022-09-01T20:08:45;57634.44;;;-135.08
66027;BMP280;56312;55.976;37.136;2022-09-01T20:14:13;57634.44;;;-135.08
66027;BMP280;56312;55.976;37.136;2022-09-01T20:19:39;57634.44;;;-135.08
66027;BMP280;56312;55.976;37.136;2022-09-01T20:24:51;57634.44;;;-135.08
66027;BMP280;56312;55.976;37.136;2022-09-01T20:30:42;57634.44;;;-135.08
66027;BMP280;56312;55.976;37.136;2022-09-01T20:35:49;57634.44;;;-135.08
66027;BMP280;56312;55.976;37.136;2022-09-01T20:41:02;57634.44;;;-135.08
66027;BMP280;56312;55.976;37.136;2022-09-01T20:46:20;57634.44;;;-135.08
66027;BMP280;56312;55.976;37.136;2022-09-01T20:51:36;57634.44;;;-135.08
66027;BMP280;56312;55.976;37.136;2022-09-01T21:02:06;57634.44;;;-135.08
66027;BMP280;56312;55.976;37.136;2022-09-01T21:07:39;57634.44;;;-135.08
66027;BMP280;56312;55.976;37.136;2022-09-01T21:13:09;57634.44;;;-135.08
66027;BMP280;56312;55.976;37.136;2022-09-01T21:18:30;57634.44;;;-135.08
66027;BMP280;56312;55.976;37.136;2022-09-01T21:23:51;57634.44;;;-135.08
66027;BMP280;56312;55.976;37.136;2022-09-01T21:28:58;57634.44;;;-135.08
66027;BMP280;56312;55.976;37.136;2022-09-01T21:34:18;57634.44;;;-135.08
66027;BMP280;56312;55.976;37.136;2022-09-01T21:39:24;57634.44;;;-135.08
66027;BMP280;56312;55.976;37.136;2022-09-01T21:44:31;57634.44;;;-135.08
66027;BMP280;56312;55.976;37.136;2022-09-01T21:49:37;57634.44;;;-135.08
66027;BMP280;56312;55.976;37.136;2022-09-01T21:54:43;57634.44;;;-135.08
66027;BMP280;56312;55.976;37.136;2022-09-01T21:59:50;57634.44;;;-135.08
66027;BMP280;56312;55.976;37.136;2022-09-01T22:05:15;57634.44;;;-135.08
66027;BMP280;56312;55.976;37.136;2022-09-01T22:10:22;57634.44;;;-135.08
66027;BMP280;56312;55.976;37.136;2022-09-01T22:15:31;57634.44;;;-135.08
66027;BMP280;56312;55.976;37.136;2022-09-01T22:20:37;57634.44;;;-135.08
66027;BMP280;56312;55.976;37.136;2022-09-01T22:25:45;57634.44;;;-135.08
66027;BMP280;56312;55.976;37.136;2022-09-01T22:30:52;57634.44;;;-135.08
66027;BMP280;56312;55.976;37.136;2022-09-01T22:35:58;57634.44;;;-135.08
66027;BMP280;56312;55.976;37.136;2022-09-01T22:41:05;57634.44;;;-135.08
66027;BMP280;56312;55.976;37.136;2022-09-01T22:46:11;57634.44;;;-135.08
66027;BMP280;56312;55.976;37.136;2022-09-01T22:51:18;57634.44;;;-135.08
66027;BMP280;56312;55.976;37.136;2022-09-01T22:56:26;57634.44;;;-135.08
66027;BMP280;56312;55.976;37.136;2022-09-01T23:01:36;57634.44;;;-135.08
66027;BMP280;56312;55.976;37.136;2022-09-01T23:06:45;57634.44;;;-135.08
66027;BMP280;56312;55.976;37.136;2022-09-01T23:11:54;57634.44;;;-135.08
66027;BMP280;56312;55.976;37.136;2022-09-01T23:17:01;57634.44;;;-135.08
66027;BMP280;56312;55.976;37.136;2022-09-01T23:22:07;57634.44;;;-135.08
66027;BMP280;56312;55.976;37.136;2022-09-01T23:27:13;57634.44;;;-135.08
66027;BMP280;56312;55.976;37.136;2022-09-01T23:32:20;57634.44;;;-135.08
66027;BMP280;56312;55.976;37.136;2022-09-01T23:37:26;57634.44;;;-135.08
66027;BMP280;56312;55.976;37.136;2022-09-01T23:42:33;57634.44;;;-135.08
66027;BMP280;56312;55.976;37.136;2022-09-01T23:47:39;57634.44;;;-135.08
66027;BMP280;56312;55.976;37.136;2022-09-01T23:52:46;57634.44;;;-135.08
66027;BMP280;56312;55.976;37.136;2022-09-01T23:57:52;57634.44;;;-135.08
